createdAt,value
2023-03-04T00:00:56.634Z,98816.13
2023-03-04T00:01:58.149Z,98826.25
2023-03-04T00:02:59.846Z,98825.19
2023-03-04T00:04:03.960Z,98824.31
2023-03-04T00:05:16.875Z,98822.31
2023-03-04T00:06:18.506Z,98829.03
2023-03-04T00:07:23.398Z,98822.78
2023-03-04T00:08:28.485Z,98827.97
2023-03-04T00:09:29.986Z,98826.44
2023-03-04T00:10:31.558Z,98816.59
2023-03-04T00:11:33.096Z,98824.91
2023-03-04T00:12:34.788Z,98820.94
2023-03-04T00:13:36.312Z,98818.81
2023-03-04T00:14:37.830Z,98819.03
2023-03-04T00:15:39.505Z,98816.03
2023-03-04T00:16:41.046Z,98817.28
2023-03-04T00:17:42.661Z,98818.94
2023-03-04T00:18:44.278Z,98813.50
2023-03-04T00:19:45.796Z,98810.06
2023-03-04T00:20:50.574Z,98816.59
2023-03-04T00:21:54.857Z,98811.47
2023-03-04T00:22:59.102Z,98820.06
2023-03-04T00:24:00.735Z,98817.75
2023-03-04T00:25:02.377Z,98819.28
2023-03-04T00:26:03.928Z,98818.31
2023-03-04T00:27:05.407Z,98822.34
2023-03-04T00:28:07.121Z,98821.09
2023-03-04T00:29:08.570Z,98821.38
2023-03-04T00:30:10.624Z,98821.84
2023-03-04T00:31:12.186Z,98824.75
2023-03-04T00:32:13.808Z,98816.94
2023-03-04T00:33:15.390Z,98817.50
2023-03-04T00:34:16.857Z,98821.16
2023-03-04T00:35:18.558Z,98821.94
2023-03-04T00:36:20.300Z,98816.47
2023-03-04T00:37:21.941Z,98823.97
2023-03-04T00:38:23.394Z,98821.47
2023-03-04T00:39:24.891Z,98819.94
2023-03-04T00:40:26.373Z,98817.81
2023-03-04T00:41:27.832Z,98823.66
2023-03-04T00:42:29.317Z,98819.72
2023-03-04T00:43:32.179Z,98820.00
2023-03-04T00:44:48.379Z,98820.34
2023-03-04T00:45:51.499Z,98822.19
2023-03-04T00:46:53.171Z,98820.16
2023-03-04T00:47:54.630Z,98819.38
2023-03-04T00:48:56.062Z,98823.72
2023-03-04T00:49:57.934Z,98822.97
2023-03-04T00:50:59.351Z,98827.09
2023-03-04T00:52:00.887Z,98825.00
2023-03-04T00:53:02.365Z,98823.94
2023-03-04T00:54:03.895Z,98831.28
2023-03-04T00:55:07.160Z,98825.47
2023-03-04T00:56:08.678Z,98827.91
2023-03-04T00:57:10.181Z,98825.78
2023-03-04T00:58:11.699Z,98826.53
2023-03-04T00:59:13.188Z,98829.53
2023-03-04T01:00:15.276Z,98823.34
2023-03-04T01:01:17.098Z,98823.34
2023-03-04T01:02:18.613Z,98825.44
2023-03-04T01:03:20.098Z,98822.91
2023-03-04T01:04:21.512Z,98820.16
2023-03-04T01:05:23.770Z,98818.63
2023-03-04T01:06:25.302Z,98819.13
2023-03-04T01:07:26.777Z,98814.78
2023-03-04T01:08:28.285Z,98814.00
2023-03-04T01:09:30.100Z,98810.91
2023-03-04T01:10:32.052Z,98807.63
2023-03-04T01:11:33.463Z,98809.66
2023-03-04T01:12:34.921Z,98810.34
2023-03-04T01:13:36.427Z,98815.34
2023-03-04T01:14:38.297Z,98810.69
2023-03-04T01:15:39.773Z,98805.22
2023-03-04T01:16:41.354Z,98805.41
2023-03-04T01:17:42.942Z,98808.44
2023-03-04T01:18:45.202Z,98806.41
2023-03-04T01:19:46.972Z,98810.56
2023-03-04T01:20:48.573Z,98809.50
2023-03-04T01:21:50.011Z,98808.06
2023-03-04T01:22:51.498Z,98804.56
2023-03-04T01:23:53.002Z,98806.47
2023-03-04T01:24:54.729Z,98804.66
2023-03-04T01:25:56.222Z,98802.25
2023-03-04T01:26:57.636Z,98809.75
2023-03-04T01:27:59.055Z,98802.81
2023-03-04T01:29:00.574Z,98805.41
2023-03-04T01:30:02.197Z,98811.06
2023-03-04T01:31:04.416Z,98798.75
2023-03-04T01:32:06.336Z,98803.69
2023-03-04T01:33:08.097Z,98803.19
2023-03-04T01:34:09.962Z,98801.66
2023-03-04T01:35:11.490Z,98803.56
2023-03-04T01:36:13.066Z,98798.91
2023-03-04T01:37:14.513Z,98799.47
2023-03-04T01:38:16.014Z,98796.59
2023-03-04T01:39:17.885Z,98805.63
2023-03-04T01:40:19.840Z,98795.53
2023-03-04T01:41:24.938Z,98803.25
2023-03-04T01:42:30.383Z,98799.88
2023-03-04T01:43:32.245Z,98798.59
2023-03-04T01:44:33.796Z,98801.44
2023-03-04T01:45:35.853Z,98794.91
2023-03-04T01:46:37.829Z,98795.16
2023-03-04T01:47:39.329Z,98797.00
2023-03-04T01:48:42.076Z,98791.53
2023-03-04T01:49:44.162Z,98784.69
2023-03-04T01:50:45.742Z,98787.94
2023-03-04T01:51:53.155Z,98789.28
2023-03-04T01:52:54.816Z,98793.16
2023-03-04T01:53:56.660Z,98787.38
2023-03-04T01:54:58.465Z,98782.66
2023-03-04T01:56:13.093Z,98787.09
2023-03-04T01:57:26.051Z,98780.69
2023-03-04T01:58:30.511Z,98781.75
2023-03-04T01:59:32.869Z,98790.03
2023-03-04T02:00:35.133Z,98785.41
2023-03-04T02:01:38.268Z,98784.06
2023-03-04T02:02:39.979Z,98782.91
2023-03-04T02:03:41.746Z,98779.25
2023-03-04T02:04:43.594Z,98773.75
2023-03-04T02:05:49.715Z,98776.06
2023-03-04T02:06:51.950Z,98785.22
2023-03-04T02:07:55.442Z,98784.22
2023-03-04T02:08:57.404Z,98776.22
2023-03-04T02:09:58.819Z,98774.75
2023-03-04T02:11:00.385Z,98783.81
2023-03-04T02:12:02.248Z,98785.34
2023-03-04T02:13:04.754Z,98777.41
2023-03-04T02:14:07.144Z,98781.34
2023-03-04T02:15:09.128Z,98775.88
2023-03-04T02:16:10.657Z,98772.84
2023-03-04T02:17:13.001Z,98779.88
2023-03-04T02:18:21.370Z,98779.56
2023-03-04T02:19:55.171Z,98780.22
2023-03-04T02:21:02.325Z,98777.81
2023-03-04T02:22:04.142Z,98773.91
2023-03-04T02:23:24.574Z,98770.75
2023-03-04T02:24:34.404Z,98770.94
2023-03-04T02:25:44.284Z,98772.53
2023-03-04T02:26:47.051Z,98765.25
2023-03-04T02:27:48.681Z,98771.50
2023-03-04T02:28:52.114Z,98770.75
2023-03-04T02:29:53.872Z,98773.91
2023-03-04T02:30:55.320Z,98772.28
2023-03-04T02:31:56.818Z,98766.03
2023-03-04T02:32:58.395Z,98762.94
2023-03-04T02:34:03.232Z,98763.97
2023-03-04T02:35:05.321Z,98760.53
2023-03-04T02:36:07.185Z,98761.25
2023-03-04T02:37:10.608Z,98766.72
2023-03-04T02:38:12.520Z,98767.41
2023-03-04T02:39:20.158Z,98758.16
2023-03-04T02:40:27.301Z,98762.81
2023-03-04T02:41:30.409Z,98761.81
2023-03-04T02:42:31.742Z,98758.50
2023-03-04T02:43:33.244Z,98755.69
2023-03-04T02:44:38.241Z,98759.84
2023-03-04T02:45:49.356Z,98754.56
2023-03-04T02:46:51.852Z,98752.97
2023-03-04T02:47:53.340Z,98757.69
2023-03-04T02:48:55.031Z,98762.94
2023-03-04T02:49:56.638Z,98756.09
2023-03-04T02:50:58.266Z,98757.38
2023-03-04T02:52:04.672Z,98756.09
2023-03-04T02:53:06.201Z,98761.66
2023-03-04T02:54:18.993Z,98757.53
2023-03-04T02:55:20.813Z,98760.53
2023-03-04T02:56:22.341Z,98761.53
2023-03-04T02:57:23.808Z,98760.69
2023-03-04T02:58:25.322Z,98751.06
2023-03-04T02:59:27.646Z,98753.66
2023-03-04T03:00:29.961Z,98757.31
2023-03-04T03:01:31.418Z,98758.44
2023-03-04T03:02:32.926Z,98755.06
2023-03-04T03:03:34.403Z,98756.47
2023-03-04T03:04:37.927Z,98753.38
2023-03-04T03:05:40.217Z,98748.75
2023-03-04T03:06:41.710Z,98756.69
2023-03-04T03:07:43.488Z,98753.50
2023-03-04T03:08:44.913Z,98756.09
2023-03-04T03:09:46.694Z,98757.16
2023-03-04T03:10:48.228Z,98749.31
2023-03-04T03:11:49.950Z,98754.50
2023-03-04T03:12:51.429Z,98755.34
2023-03-04T03:13:52.883Z,98752.53
2023-03-04T03:14:54.653Z,98757.75
2023-03-04T03:15:56.338Z,98756.97
2023-03-04T03:16:57.872Z,98760.53
2023-03-04T03:17:59.418Z,98756.63
2023-03-04T03:19:01.031Z,98758.84
2023-03-04T03:20:03.224Z,98758.66
2023-03-04T03:21:04.830Z,98761.19
2023-03-04T03:22:06.296Z,98763.22
2023-03-04T03:23:07.860Z,98760.69
2023-03-04T03:24:09.348Z,98766.16
2023-03-04T03:25:12.738Z,98766.47
2023-03-04T03:26:14.712Z,98762.22
2023-03-04T03:27:16.130Z,98754.44
2023-03-04T03:28:17.571Z,98765.13
2023-03-04T03:29:19.115Z,98753.88
2023-03-04T03:30:20.659Z,98759.06
2023-03-04T03:31:22.449Z,98761.97
2023-03-04T03:32:24.132Z,98761.44
2023-03-04T03:33:25.702Z,98753.09
2023-03-04T03:34:27.275Z,98754.66
2023-03-04T03:35:28.993Z,98756.53
2023-03-04T03:36:30.499Z,98756.25
2023-03-04T03:37:32.125Z,98764.75
2023-03-04T03:38:35.004Z,98753.41
2023-03-04T03:39:36.512Z,98756.00
2023-03-04T03:40:38.395Z,98765.88
2023-03-04T03:41:39.857Z,98750.72
2023-03-04T03:42:41.329Z,98743.56
2023-03-04T03:43:42.782Z,98755.25
2023-03-04T03:44:44.298Z,98761.44
2023-03-04T03:45:45.963Z,98756.75
2023-03-04T03:46:47.470Z,98756.19
2023-03-04T03:47:48.865Z,98758.09
2023-03-04T03:48:50.293Z,98753.94
2023-03-04T03:49:52.055Z,98751.91
2023-03-04T03:50:53.480Z,98762.09
2023-03-04T03:51:55.034Z,98762.59
2023-03-04T03:52:56.651Z,98759.69
2023-03-04T03:53:58.084Z,98763.06
2023-03-04T03:55:02.319Z,98757.00
2023-03-04T03:56:04.193Z,98760.59
2023-03-04T03:57:05.940Z,98764.47
2023-03-04T03:58:07.650Z,98764.47
2023-03-04T03:59:09.446Z,98757.81
2023-03-04T04:00:11.720Z,98768.13
2023-03-04T04:01:13.188Z,98765.03
2023-03-04T04:02:14.853Z,98771.69
2023-03-04T04:03:17.133Z,98768.00
2023-03-04T04:04:18.766Z,98773.41
2023-03-04T04:05:20.335Z,98772.53
2023-03-04T04:06:21.830Z,98775.50
2023-03-04T04:07:23.291Z,98773.47
2023-03-04T04:08:24.732Z,98775.78
2023-03-04T04:09:26.507Z,98777.03
2023-03-04T04:10:27.925Z,98776.28
2023-03-04T04:11:29.394Z,98773.13
2023-03-04T04:12:30.953Z,98774.88
2023-03-04T04:13:32.452Z,98776.91
2023-03-04T04:14:34.723Z,98780.09
2023-03-04T04:15:38.590Z,98778.09
2023-03-04T04:16:40.514Z,98775.50
2023-03-04T04:17:42.053Z,98778.88
2023-03-04T04:18:43.671Z,98777.25
2023-03-04T04:19:45.099Z,98776.97
2023-03-04T04:20:47.125Z,98782.31
2023-03-04T04:21:49.063Z,98780.50
2023-03-04T04:22:50.499Z,98781.34
2023-03-04T04:23:52.012Z,98783.44
2023-03-04T04:24:53.482Z,98781.34
2023-03-04T04:25:56.119Z,98783.75
2023-03-04T04:26:58.046Z,98784.78
2023-03-04T04:27:59.651Z,98782.19
2023-03-04T04:29:01.443Z,98784.22
2023-03-04T04:30:04.219Z,98787.53
2023-03-04T04:31:09.616Z,98790.63
2023-03-04T04:32:13.203Z,98782.75
2023-03-04T04:33:16.200Z,98781.00
2023-03-04T04:34:17.708Z,98782.81
2023-03-04T04:35:19.517Z,98783.53
2023-03-04T04:36:21.149Z,98784.78
2023-03-04T04:37:22.577Z,98782.69
2023-03-04T04:38:24.753Z,98787.94
2023-03-04T04:39:26.177Z,98781.97
2023-03-04T04:40:27.802Z,98781.69
2023-03-04T04:41:34.836Z,98776.44
2023-03-04T04:42:36.268Z,98778.25
2023-03-04T04:43:37.711Z,98776.66
2023-03-04T04:44:39.279Z,98780.78
2023-03-04T04:45:41.622Z,98783.75
2023-03-04T04:46:43.333Z,98779.50
2023-03-04T04:47:44.827Z,98780.22
2023-03-04T04:48:46.518Z,98783.31
2023-03-04T04:49:47.977Z,98778.63
2023-03-04T04:50:54.843Z,98780.72
2023-03-04T04:51:56.374Z,98777.47
2023-03-04T04:52:57.852Z,98787.75
2023-03-04T04:54:00.858Z,98784.16
2023-03-04T04:55:02.668Z,98787.53
2023-03-04T04:56:16.866Z,98773.69
2023-03-04T04:57:18.328Z,98778.09
2023-03-04T04:58:20.140Z,98775.22
2023-03-04T04:59:21.841Z,98775.44
2023-03-04T05:00:23.278Z,98775.66
2023-03-04T05:01:26.072Z,98784.69
2023-03-04T05:02:27.610Z,98779.56
2023-03-04T05:03:29.208Z,98777.06
2023-03-04T05:04:30.684Z,98774.38
2023-03-04T05:05:32.136Z,98779.25
2023-03-04T05:06:33.694Z,98781.63
2023-03-04T05:07:35.245Z,98783.44
2023-03-04T05:08:36.832Z,98777.19
2023-03-04T05:09:38.492Z,98780.31
2023-03-04T05:10:39.935Z,98779.16
2023-03-04T05:11:41.546Z,98779.31
2023-03-04T05:12:44.767Z,98789.41
2023-03-04T05:13:47.718Z,98782.81
2023-03-04T05:14:49.171Z,98781.47
2023-03-04T05:15:55.665Z,98789.28
2023-03-04T05:16:57.161Z,98779.09
2023-03-04T05:17:58.628Z,98791.25
2023-03-04T05:19:00.068Z,98788.84
2023-03-04T05:20:01.524Z,98787.03
2023-03-04T05:21:04.537Z,98793.69
2023-03-04T05:22:05.921Z,98785.88
2023-03-04T05:23:07.750Z,98773.84
2023-03-04T05:24:09.281Z,98779.41
2023-03-04T05:25:10.766Z,98786.16
2023-03-04T05:26:15.002Z,98783.50
2023-03-04T05:27:16.460Z,98778.53
2023-03-04T05:28:19.382Z,98786.66
2023-03-04T05:29:20.928Z,98789.34
2023-03-04T05:30:22.437Z,98785.91
2023-03-04T05:31:23.909Z,98782.75
2023-03-04T05:32:25.532Z,98779.72
2023-03-04T05:33:27.570Z,98786.19
2023-03-04T05:34:29.023Z,98787.81
2023-03-04T05:35:30.550Z,98787.53
2023-03-04T05:36:32.056Z,98781.41
2023-03-04T05:37:33.852Z,98784.69
2023-03-04T05:38:35.508Z,98784.38
2023-03-04T05:39:37.040Z,98780.94
2023-03-04T05:40:39.211Z,98785.44
2023-03-04T05:41:40.646Z,98787.44
2023-03-04T05:42:42.489Z,98783.09
2023-03-04T05:43:43.932Z,98787.66
2023-03-04T05:44:45.403Z,98777.97
2023-03-04T05:45:49.301Z,98786.06
2023-03-04T05:46:50.804Z,98785.00
2023-03-04T05:47:53.192Z,98783.94
2023-03-04T05:48:54.868Z,98774.97
2023-03-04T05:49:58.106Z,98782.47
2023-03-04T05:51:01.500Z,98783.94
2023-03-04T05:52:03.082Z,98782.84
2023-03-04T05:53:04.874Z,98781.47
2023-03-04T05:54:06.317Z,98780.16
2023-03-04T05:55:08.361Z,98788.44
2023-03-04T05:56:16.631Z,98780.63
2023-03-04T05:57:18.046Z,98784.59
2023-03-04T05:58:20.600Z,98787.13
2023-03-04T05:59:22.225Z,98792.66
2023-03-04T06:00:24.333Z,98784.50
2023-03-04T06:01:26.164Z,98790.47
2023-03-04T06:02:28.065Z,98793.78
2023-03-04T06:03:29.766Z,98791.31
2023-03-04T06:04:31.272Z,98793.78
2023-03-04T06:05:32.724Z,98793.91
2023-03-04T06:06:34.248Z,98789.41
2023-03-04T06:07:36.315Z,98793.28
2023-03-04T06:08:37.862Z,98794.13
2023-03-04T06:09:39.327Z,98794.19
2023-03-04T06:10:41.579Z,98793.91
2023-03-04T06:11:43.061Z,98800.38
2023-03-04T06:12:44.652Z,98796.91
2023-03-04T06:13:46.113Z,98788.63
2023-03-04T06:14:47.684Z,98796.53
2023-03-04T06:15:57.510Z,98793.06
2023-03-04T06:16:59.030Z,98795.81
2023-03-04T06:18:00.560Z,98796.22
2023-03-04T06:19:02.049Z,98792.63
2023-03-04T06:20:06.085Z,98800.44
2023-03-04T06:21:07.568Z,98795.31
2023-03-04T06:22:10.599Z,98797.50
2023-03-04T06:23:12.081Z,98802.91
2023-03-04T06:24:13.754Z,98797.69
2023-03-04T06:25:15.611Z,98790.09
2023-03-04T06:26:17.501Z,98802.31
2023-03-04T06:27:19.127Z,98799.88
2023-03-04T06:28:20.807Z,98801.25
2023-03-04T06:29:22.330Z,98798.22
2023-03-04T06:30:26.796Z,98800.22
2023-03-04T06:31:28.454Z,98802.16
2023-03-04T06:32:30.015Z,98804.16
2023-03-04T06:33:31.496Z,98805.44
2023-03-04T06:34:33.780Z,98806.13
2023-03-04T06:35:35.229Z,98802.22
2023-03-04T06:36:36.774Z,98808.94
2023-03-04T06:37:38.541Z,98812.94
2023-03-04T06:38:40.008Z,98813.16
2023-03-04T06:39:41.455Z,98813.56
2023-03-04T06:40:43.005Z,98805.53
2023-03-04T06:41:44.594Z,98812.72
2023-03-04T06:42:46.101Z,98807.75
2023-03-04T06:43:47.572Z,98817.63
2023-03-04T06:44:49.779Z,98817.78
2023-03-04T06:45:51.311Z,98812.75
2023-03-04T06:46:53.143Z,98816.56
2023-03-04T06:47:54.656Z,98817.47
2023-03-04T06:48:56.693Z,98820.03
2023-03-04T06:49:58.455Z,98817.22
2023-03-04T06:51:08.872Z,98821.28
2023-03-04T06:52:12.869Z,98824.81
2023-03-04T06:53:14.371Z,98820.13
2023-03-04T06:54:15.853Z,98830.38
2023-03-04T06:55:17.440Z,98826.09
2023-03-04T06:56:18.940Z,98820.00
2023-03-04T06:57:20.734Z,98821.69
2023-03-04T06:58:22.177Z,98818.78
2023-03-04T06:59:23.738Z,98825.97
2023-03-04T07:00:28.751Z,98822.78
2023-03-04T07:01:30.525Z,98829.53
2023-03-04T07:02:32.511Z,98827.41
2023-03-04T07:03:33.929Z,98833.53
2023-03-04T07:04:35.455Z,98837.34
2023-03-04T07:05:36.969Z,98837.81
2023-03-04T07:06:38.850Z,98840.34
2023-03-04T07:07:40.358Z,98833.25
2023-03-04T07:08:42.803Z,98840.56
2023-03-04T07:09:44.306Z,98840.34
2023-03-04T07:10:45.768Z,98841.81
2023-03-04T07:11:47.243Z,98846.53
2023-03-04T07:12:48.762Z,98841.13
2023-03-04T07:13:51.255Z,98842.88
2023-03-04T07:14:58.815Z,98845.63
2023-03-04T07:16:00.543Z,98847.38
2023-03-04T07:17:02.072Z,98848.22
2023-03-04T07:18:03.652Z,98848.38
2023-03-04T07:19:05.194Z,98845.78
2023-03-04T07:20:07.138Z,98844.16
2023-03-04T07:21:08.654Z,98849.34
2023-03-04T07:22:10.609Z,98847.59
2023-03-04T07:23:12.266Z,98852.09
2023-03-04T07:24:13.907Z,98849.00
2023-03-04T07:25:15.378Z,98851.47
2023-03-04T07:26:17.539Z,98851.19
2023-03-04T07:27:18.998Z,98852.03
2023-03-04T07:28:20.512Z,98852.97
2023-03-04T07:29:22.059Z,98852.09
2023-03-04T07:30:23.622Z,98852.81
2023-03-04T07:31:33.243Z,98850.59
2023-03-04T07:32:35.755Z,98849.50
2023-03-04T07:33:37.400Z,98846.88
2023-03-04T07:34:38.885Z,98849.13
2023-03-04T07:35:40.786Z,98852.09
2023-03-04T07:36:43.062Z,98845.94
2023-03-04T07:37:44.601Z,98852.97
2023-03-04T07:38:47.787Z,98850.75
2023-03-04T07:39:49.244Z,98848.16
2023-03-04T07:41:00.532Z,98855.56
2023-03-04T07:42:02.052Z,98868.69
2023-03-04T07:43:03.681Z,98855.63
2023-03-04T07:44:07.050Z,98860.25
2023-03-04T07:45:09.812Z,98856.78
2023-03-04T07:46:11.602Z,98861.22
2023-03-04T07:47:13.307Z,98855.94
2023-03-04T07:48:14.723Z,98858.75
2023-03-04T07:49:16.223Z,98862.41
2023-03-04T07:50:18.908Z,98861.72
2023-03-04T07:51:22.576Z,98856.53
2023-03-04T07:52:24.104Z,98861.84
2023-03-04T07:53:25.705Z,98855.22
2023-03-04T07:54:27.121Z,98859.00
2023-03-04T07:55:30.640Z,98856.19
2023-03-04T07:56:34.044Z,98861.63
2023-03-04T07:57:35.520Z,98854.28
2023-03-04T07:58:37.040Z,98863.31
2023-03-04T07:59:38.535Z,98862.72
2023-03-04T08:00:41.416Z,98865.25
2023-03-04T08:01:44.678Z,98862.91
2023-03-04T08:02:47.565Z,98864.34
2023-03-04T08:03:49.455Z,98855.13
2023-03-04T08:04:50.935Z,98858.28
2023-03-04T08:05:52.803Z,98859.19
2023-03-04T08:06:54.310Z,98857.22
2023-03-04T08:07:57.939Z,98856.16
2023-03-04T08:09:02.166Z,98859.53
2023-03-04T08:10:04.209Z,98860.50
2023-03-04T08:11:07.476Z,98867.72
2023-03-04T08:12:08.960Z,98856.84
2023-03-04T08:13:10.427Z,98862.50
2023-03-04T08:14:13.897Z,98861.84
2023-03-04T08:15:15.425Z,98856.63
2023-03-04T08:16:18.425Z,98854.88
2023-03-04T08:17:20.221Z,98853.47
2023-03-04T08:18:21.681Z,98847.09
2023-03-04T08:19:24.996Z,98854.63
2023-03-04T08:20:28.052Z,98849.59
2023-03-04T08:21:30.307Z,98848.47
2023-03-04T08:22:31.870Z,98849.63
2023-03-04T08:23:33.385Z,98850.41
2023-03-04T08:24:35.072Z,98851.16
2023-03-04T08:25:41.905Z,98849.53
2023-03-04T08:26:47.414Z,98848.56
2023-03-04T08:27:48.920Z,98848.31
2023-03-04T08:28:50.834Z,98850.81
2023-03-04T08:29:52.279Z,98856.47
2023-03-04T08:30:54.677Z,98849.72
2023-03-04T08:31:56.627Z,98851.78
2023-03-04T08:32:58.178Z,98844.13
2023-03-04T08:34:00.150Z,98847.69
2023-03-04T08:35:02.439Z,98845.97
2023-03-04T08:36:04.544Z,98851.06
2023-03-04T08:37:06.170Z,98853.13
2023-03-04T08:38:07.700Z,98851.47
2023-03-04T08:39:11.721Z,98850.22
2023-03-04T08:40:14.597Z,98854.66
2023-03-04T08:41:16.804Z,98851.06
2023-03-04T08:42:18.297Z,98850.22
2023-03-04T08:43:19.801Z,98846.06
2023-03-04T08:44:21.250Z,98848.88
2023-03-04T08:45:22.789Z,98849.06
2023-03-04T08:46:24.346Z,98851.94
2023-03-04T08:47:25.980Z,98844.72
2023-03-04T08:48:27.745Z,98846.25
2023-03-04T08:49:29.331Z,98849.06
2023-03-04T08:50:30.836Z,98853.41
2023-03-04T08:51:33.046Z,98851.28
2023-03-04T08:52:34.621Z,98851.38
2023-03-04T08:53:37.522Z,98852.34
2023-03-04T08:54:38.994Z,98851.28
2023-03-04T08:55:43.164Z,98850.72
2023-03-04T08:56:44.654Z,98859.78
2023-03-04T08:57:46.159Z,98859.19
2023-03-04T08:58:47.641Z,98853.22
2023-03-04T08:59:49.115Z,98853.78
2023-03-04T09:00:51.694Z,98850.72
2023-03-04T09:01:53.162Z,98858.78
2023-03-04T09:02:55.804Z,98855.06
2023-03-04T09:03:57.431Z,98852.16
2023-03-04T09:04:58.888Z,98854.09
2023-03-04T09:06:02.272Z,98856.19
2023-03-04T09:07:03.796Z,98861.91
2023-03-04T09:08:05.798Z,98863.34
2023-03-04T09:09:07.292Z,98859.97
2023-03-04T09:10:09.615Z,98862.88
2023-03-04T09:11:11.770Z,98861.31
2023-03-04T09:12:13.217Z,98857.06
2023-03-04T09:13:16.210Z,98862.78
2023-03-04T09:14:17.730Z,98866.34
2023-03-04T09:15:19.410Z,98867.50
2023-03-04T09:16:21.511Z,98864.63
2023-03-04T09:17:23.658Z,98858.22
2023-03-04T09:18:25.753Z,98854.44
2023-03-04T09:19:28.054Z,98861.03
2023-03-04T09:20:30.425Z,98861.41
2023-03-04T09:21:31.856Z,98861.31
2023-03-04T09:22:33.358Z,98861.50
2023-03-04T09:23:35.624Z,98865.47
2023-03-04T09:24:37.097Z,98863.03
2023-03-04T09:25:39.542Z,98870.75
2023-03-04T09:26:41.015Z,98868.09
2023-03-04T09:27:42.530Z,98858.31
2023-03-04T09:28:44.447Z,98861.09
2023-03-04T09:29:45.907Z,98864.50
2023-03-04T09:30:48.533Z,98868.16
2023-03-04T09:31:50.425Z,98868.16
2023-03-04T09:32:51.908Z,98863.44
2023-03-04T09:33:54.913Z,98867.88
2023-03-04T09:34:56.410Z,98859.75
2023-03-04T09:35:59.173Z,98865.16
2023-03-04T09:37:01.329Z,98861.88
2023-03-04T09:38:03.760Z,98872.38
2023-03-04T09:39:05.406Z,98868.53
2023-03-04T09:40:08.254Z,98874.81
2023-03-04T09:41:18.389Z,98868.75
2023-03-04T09:42:27.173Z,98867.78
2023-03-04T09:43:32.028Z,98871.34
2023-03-04T09:44:43.395Z,98866.91
2023-03-04T09:45:51.699Z,98865.94
2023-03-04T09:46:55.294Z,98866.19
2023-03-04T09:47:58.054Z,98865.25
2023-03-04T09:48:59.816Z,98867.91
2023-03-04T09:50:07.944Z,98873.09
2023-03-04T09:51:43.189Z,98868.03
2023-03-04T09:53:14.083Z,98873.09
2023-03-04T09:54:37.496Z,98865.53
2023-03-04T09:55:41.467Z,98868.13
2023-03-04T09:56:42.967Z,98864.09
2023-03-04T09:57:47.301Z,98867.91
2023-03-04T09:58:57.226Z,98866.56
2023-03-04T10:00:19.944Z,98860.00
2023-03-04T10:01:36.546Z,98869.00
2023-03-04T10:03:22.883Z,98860.59
2023-03-04T10:04:40.775Z,98858.44
2023-03-04T10:05:49.940Z,98854.88
2023-03-04T10:06:54.601Z,98859.94
2023-03-04T10:08:15.851Z,98859.16
2023-03-04T10:09:22.879Z,98863.78
2023-03-04T10:10:37.473Z,98850.03
2023-03-04T10:11:55.603Z,98856.81
2023-03-04T10:12:59.487Z,98855.47
2023-03-04T10:14:22.379Z,98847.63
2023-03-04T10:15:33.768Z,98857.88
2023-03-04T10:16:45.420Z,98857.94
2023-03-04T10:17:51.490Z,98850.31
2023-03-04T10:18:59.618Z,98853.59
2023-03-04T10:20:15.245Z,98849.47
2023-03-04T10:21:48.929Z,98850.25
2023-03-04T10:22:58.226Z,98848.91
2023-03-04T10:25:32.588Z,98852.66
2023-03-04T10:26:37.381Z,98852.34
2023-03-04T10:27:38.847Z,98856.19
2023-03-04T10:28:41.254Z,98846.53
2023-03-04T10:29:42.666Z,98842.84
2023-03-04T10:30:57.392Z,98844.84
2023-03-04T10:31:59.435Z,98848.84
2023-03-04T10:33:16.452Z,98837.09
2023-03-04T10:34:18.207Z,98843.09
2023-03-04T10:35:25.444Z,98838.47
2023-03-04T10:36:29.879Z,98843.69
2023-03-04T10:37:50.091Z,98844.63
2023-03-04T10:38:57.398Z,98833.59
2023-03-04T10:40:01.168Z,98840.25
2023-03-04T10:41:12.676Z,98844.09
2023-03-04T10:42:14.208Z,98840.31
2023-03-04T10:43:21.150Z,98840.19
2023-03-04T10:44:23.471Z,98839.00
2023-03-04T10:45:27.808Z,98842.38
2023-03-04T10:46:30.141Z,98839.56
2023-03-04T10:47:32.977Z,98836.06
2023-03-04T10:48:34.472Z,98836.00
2023-03-04T10:49:51.300Z,98837.91
2023-03-04T10:50:53.003Z,98830.56
2023-03-04T10:52:23.825Z,98829.69
2023-03-04T10:53:39.940Z,98836.00
2023-03-04T10:54:47.885Z,98839.09
2023-03-04T10:55:49.414Z,98835.59
2023-03-04T10:56:56.107Z,98836.19
2023-03-04T10:58:05.345Z,98832.94
2023-03-04T10:59:25.310Z,98835.59
2023-03-04T11:00:32.070Z,98837.84
2023-03-04T11:01:33.642Z,98832.16
2023-03-04T11:02:36.794Z,98831.53
2023-03-04T11:03:38.714Z,98825.88
2023-03-04T11:04:40.765Z,98834.47
2023-03-04T11:05:42.740Z,98833.00
2023-03-04T11:06:44.269Z,98840.53
2023-03-04T11:07:55.917Z,98832.34
2023-03-04T11:08:59.780Z,98833.13
2023-03-04T11:10:24.260Z,98834.53
2023-03-04T11:11:42.916Z,98831.28
2023-03-04T11:12:50.294Z,98835.13
2023-03-04T11:13:57.585Z,98834.22
2023-03-04T11:14:59.091Z,98830.97
2023-03-04T11:16:01.974Z,98834.59
2023-03-04T11:17:17.774Z,98834.47
2023-03-04T11:18:37.490Z,98833.00
2023-03-04T11:19:40.437Z,98833.19
2023-03-04T11:20:49.350Z,98830.13
2023-03-04T11:21:52.512Z,98834.59
2023-03-04T11:22:56.959Z,98832.88
2023-03-04T11:24:04.043Z,98839.44
2023-03-04T11:25:23.447Z,98831.03
2023-03-04T11:26:33.163Z,98833.06
2023-03-04T11:27:41.851Z,98831.34
2023-03-04T11:28:54.766Z,98830.84
2023-03-04T11:30:03.614Z,98829.78
2023-03-04T11:31:29.305Z,98833.75
2023-03-04T11:32:40.956Z,98827.16
2023-03-04T11:34:02.048Z,98831.03
2023-03-04T11:35:24.129Z,98829.00
2023-03-04T11:36:41.338Z,98822.72
2023-03-04T11:37:55.453Z,98831.94
2023-03-04T11:38:57.642Z,98824.03
2023-03-04T11:40:10.998Z,98822.97
2023-03-04T11:41:32.038Z,98822.38
2023-03-04T11:42:57.477Z,98813.78
2023-03-04T11:44:00.152Z,98815.03
2023-03-04T11:45:01.924Z,98819.94
2023-03-04T11:46:25.927Z,98814.59
2023-03-04T11:47:54.381Z,98817.66
2023-03-04T11:49:02.593Z,98811.84
2023-03-04T11:50:16.389Z,98814.34
2023-03-04T11:52:02.994Z,98806.00
2023-03-04T11:53:24.333Z,98808.28
2023-03-04T11:54:49.984Z,98810.13
2023-03-04T11:56:02.414Z,98800.47
2023-03-04T11:57:21.546Z,98803.38
2023-03-04T11:58:47.878Z,98803.56
2023-03-04T12:00:00.184Z,98799.38
2023-03-04T12:01:20.416Z,98793.44
2023-03-04T12:02:32.130Z,98801.22
2023-03-04T12:03:52.049Z,98797.53
2023-03-04T12:05:02.472Z,98785.56
2023-03-04T12:06:52.223Z,98794.94
2023-03-04T12:08:17.267Z,98785.88
2023-03-04T12:09:24.997Z,98783.06
2023-03-04T12:10:49.360Z,98780.34
2023-03-04T12:12:12.095Z,98779.88
2023-03-04T12:13:46.169Z,98774.22
2023-03-04T12:14:58.328Z,98779.31
2023-03-04T12:16:14.823Z,98777.44
2023-03-04T12:17:42.777Z,98780.66
2023-03-04T12:18:50.143Z,98773.00
2023-03-04T12:20:04.911Z,98774.97
2023-03-04T12:21:17.230Z,98764.88
2023-03-04T12:22:38.413Z,98766.25
2023-03-04T12:23:52.667Z,98768.72
2023-03-04T12:25:43.629Z,98775.63
2023-03-04T12:26:55.000Z,98765.16
2023-03-04T12:28:03.684Z,98764.88
2023-03-04T12:29:29.774Z,98763.50
2023-03-04T12:30:58.060Z,98763.59
2023-03-04T12:32:11.070Z,98763.78
2023-03-04T12:33:37.508Z,98765.66
2023-03-04T12:35:02.749Z,98760.44
2023-03-04T12:36:25.655Z,98762.72
2023-03-04T12:38:03.726Z,98759.34
2023-03-04T12:39:20.540Z,98760.44
2023-03-04T12:40:29.015Z,98752.88
2023-03-04T12:41:30.427Z,98758.53